createdAt,value
2023-01-21T00:01:13.766Z,98603.56
2023-01-21T00:03:41.895Z,98609.66
2023-01-21T00:06:11.918Z,98604.31
2023-01-21T00:08:39.696Z,98607.84
2023-01-21T00:11:08.413Z,98610.59
2023-01-21T00:13:36.801Z,98609.56
2023-01-21T00:16:05.558Z,98612.19
2023-01-21T00:18:34.178Z,98607.66
2023-01-21T00:21:02.343Z,98613.22
2023-01-21T00:23:31.478Z,98604.72
2023-01-21T00:26:00.261Z,98607.94
2023-01-21T00:28:29.508Z,98607.94
2023-01-21T00:31:00.757Z,98617.56
2023-01-21T00:33:29.501Z,98609.84
2023-01-21T00:36:01.209Z,98615.00
2023-01-21T00:38:29.566Z,98619.84
2023-01-21T00:41:02.657Z,98612.84
2023-01-21T00:43:30.433Z,98617.56
2023-01-21T00:45:58.362Z,98619.66
2023-01-21T00:48:26.909Z,98630.94
2023-01-21T00:50:56.060Z,98631.56
2023-01-21T00:53:24.349Z,98632.19
2023-01-21T00:55:52.093Z,98629.00
2023-01-21T00:58:21.295Z,98635.38
2023-01-21T01:00:49.175Z,98630.34
2023-01-21T01:03:16.926Z,98633.19
2023-01-21T01:05:44.552Z,98634.78
2023-01-21T01:08:12.270Z,98636.41
2023-01-21T01:10:40.052Z,98646.09
2023-01-21T01:13:07.797Z,98647.63
2023-01-21T01:15:36.902Z,98649.13
2023-01-21T01:18:04.739Z,98656.09
2023-01-21T01:20:32.452Z,98653.47
2023-01-21T01:23:00.199Z,98659.88
2023-01-21T01:25:27.951Z,98661.56
2023-01-21T01:27:55.616Z,98666.78
2023-01-21T01:30:23.302Z,98652.75
2023-01-21T01:32:52.455Z,98668.97
2023-01-21T01:35:20.231Z,98665.28
2023-01-21T01:37:47.943Z,98669.03
2023-01-21T01:40:19.142Z,98676.06
2023-01-21T01:42:46.963Z,98676.06
2023-01-21T01:45:20.667Z,98679.22
2023-01-21T01:47:59.820Z,98676.06
2023-01-21T01:50:29.979Z,98676.25
2023-01-21T01:53:00.863Z,98680.34
2023-01-21T01:55:29.848Z,98681.84
2023-01-21T01:57:58.123Z,98685.69
2023-01-21T02:00:26.740Z,98677.00
2023-01-21T02:03:13.825Z,98688.25
2023-01-21T02:05:43.109Z,98686.19
2023-01-21T02:08:11.981Z,98686.28
2023-01-21T02:10:39.711Z,98676.88
2023-01-21T02:13:07.563Z,98687.84
2023-01-21T02:15:43.141Z,98675.28
2023-01-21T02:18:20.310Z,98672.66
2023-01-21T02:21:20.568Z,98668.94
2023-01-21T02:24:31.732Z,98681.94
2023-01-21T02:27:32.177Z,98679.50
2023-01-21T02:30:22.190Z,98677.41
2023-01-21T02:33:14.759Z,98673.84
2023-01-21T02:35:47.411Z,98679.03
2023-01-21T02:38:26.297Z,98671.06
2023-01-21T02:41:03.715Z,98678.47
2023-01-21T02:43:43.442Z,98680.00
2023-01-21T02:46:18.549Z,98678.41
2023-01-21T02:48:55.282Z,98673.66
2023-01-21T02:51:24.674Z,98674.78
2023-01-21T02:53:52.450Z,98672.81
2023-01-21T02:56:25.042Z,98665.09
2023-01-21T02:58:57.368Z,98675.84
2023-01-21T03:01:38.264Z,98675.59
2023-01-21T03:04:39.309Z,98674.28
2023-01-21T03:07:14.528Z,98679.03
2023-01-21T03:09:42.463Z,98683.06
2023-01-21T03:12:20.933Z,98673.41
2023-01-21T03:15:14.048Z,98668.00
2023-01-21T03:17:46.689Z,98666.59
2023-01-21T03:20:21.299Z,98666.88
2023-01-21T03:22:53.485Z,98669.88
2023-01-21T03:25:23.224Z,98681.13
2023-01-21T03:27:53.351Z,98670.53
2023-01-21T03:30:24.720Z,98675.94
2023-01-21T03:32:55.006Z,98680.44
2023-01-21T03:35:27.745Z,98675.34
2023-01-21T03:37:59.821Z,98674.31
2023-01-21T03:40:31.771Z,98673.75
2023-01-21T03:42:59.631Z,98676.56
2023-01-21T03:45:35.659Z,98674.88
2023-01-21T03:48:10.754Z,98682.25
2023-01-21T03:50:44.039Z,98681.91
2023-01-21T03:53:12.367Z,98672.25
2023-01-21T03:55:40.040Z,98682.66
2023-01-21T03:58:07.731Z,98683.53
2023-01-21T04:00:35.380Z,98678.72
2023-01-21T04:03:03.090Z,98679.25
2023-01-21T04:05:30.748Z,98671.28
2023-01-21T04:08:00.522Z,98677.69
2023-01-21T04:10:28.255Z,98678.81
2023-01-21T04:12:55.984Z,98676.31
2023-01-21T04:15:23.671Z,98672.34
2023-01-21T04:17:51.366Z,98675.31
2023-01-21T04:20:19.823Z,98675.88
2023-01-21T04:22:47.553Z,98674.38
2023-01-21T04:25:16.627Z,98666.63
2023-01-21T04:27:44.281Z,98670.03
2023-01-21T04:30:12.509Z,98670.34
2023-01-21T04:32:40.168Z,98670.84
2023-01-21T04:35:08.788Z,98668.97
2023-01-21T04:37:36.492Z,98660.69
2023-01-21T04:40:04.908Z,98673.03
2023-01-21T04:42:33.948Z,98666.06
2023-01-21T04:45:01.614Z,98675.72
2023-01-21T04:47:29.300Z,98674.94
2023-01-21T04:49:57.007Z,98672.53
2023-01-21T04:52:24.726Z,98675.25
2023-01-21T04:54:52.414Z,98666.09
2023-01-21T04:57:20.215Z,98677.88
2023-01-21T04:59:49.258Z,98673.53
2023-01-21T05:02:16.998Z,98682.63
2023-01-21T05:04:44.764Z,98680.00
2023-01-21T05:07:13.206Z,98675.69
2023-01-21T05:09:40.892Z,98685.84
2023-01-21T05:12:09.452Z,98680.72
2023-01-21T05:14:37.358Z,98677.31
2023-01-21T05:17:06.544Z,98685.28
2023-01-21T05:19:34.255Z,98693.88
2023-01-21T05:22:02.051Z,98689.59
2023-01-21T05:24:29.700Z,98685.84
2023-01-21T05:26:57.442Z,98687.97
2023-01-21T05:29:25.144Z,98689.59
2023-01-21T05:31:52.918Z,98692.56
2023-01-21T05:34:22.051Z,98694.69
2023-01-21T05:36:49.771Z,98698.69
2023-01-21T05:39:17.546Z,98700.41
2023-01-21T05:41:45.243Z,98698.50
2023-01-21T05:44:13.132Z,98693.94
2023-01-21T05:46:40.956Z,98700.34
2023-01-21T05:49:08.745Z,98705.16
2023-01-21T05:51:37.818Z,98698.69
2023-01-21T05:54:05.771Z,98696.00
2023-01-21T05:56:33.540Z,98699.22
2023-01-21T05:59:01.285Z,98713.66
2023-01-21T06:01:28.968Z,98705.16
2023-01-21T06:03:56.704Z,98710.50
2023-01-21T06:06:24.420Z,98709.00
2023-01-21T06:08:53.458Z,98706.88
2023-01-21T06:11:21.201Z,98717.59
2023-01-21T06:13:48.873Z,98714.38
2023-01-21T06:16:16.632Z,98711.63
2023-01-21T06:18:44.363Z,98710.88
2023-01-21T06:21:12.037Z,98710.38
2023-01-21T06:23:39.768Z,98713.31
2023-01-21T06:26:08.794Z,98719.72
2023-01-21T06:28:36.492Z,98716.81
2023-01-21T06:31:04.561Z,98718.41
2023-01-21T06:33:32.280Z,98710.63
2023-01-21T06:36:00.042Z,98715.44
2023-01-21T06:38:27.814Z,98715.44
2023-01-21T06:40:55.540Z,98706.06
2023-01-21T06:43:24.590Z,98708.00
2023-01-21T06:45:52.335Z,98711.25
2023-01-21T06:48:20.322Z,98719.72
2023-01-21T06:50:48.038Z,98717.06
2023-01-21T06:53:15.734Z,98715.91
2023-01-21T06:55:43.434Z,98722.88
2023-01-21T06:58:11.155Z,98725.56
2023-01-21T07:00:40.287Z,98719.22
2023-01-21T07:03:08.751Z,98739.50
2023-01-21T07:05:36.806Z,98736.34
2023-01-21T07:08:05.553Z,98736.84
2023-01-21T07:10:33.258Z,98731.00
2023-01-21T07:13:00.963Z,98745.56
2023-01-21T07:15:30.862Z,98745.75
2023-01-21T07:18:00.122Z,98744.25
2023-01-21T07:20:27.928Z,98740.69
2023-01-21T07:22:55.701Z,98749.28
2023-01-21T07:25:23.414Z,98746.13
2023-01-21T07:27:51.043Z,98746.66
2023-01-21T07:30:20.754Z,98746.06
2023-01-21T07:32:48.739Z,98746.66
2023-01-21T07:35:18.156Z,98750.91
2023-01-21T07:37:45.991Z,98746.13
2023-01-21T07:40:14.459Z,98744.50
2023-01-21T07:42:42.211Z,98742.13
2023-01-21T07:45:10.733Z,98744.00
2023-01-21T07:47:38.466Z,98753.22
2023-01-21T07:50:08.643Z,98756.13
2023-01-21T07:52:37.804Z,98736.63
2023-01-21T07:55:07.341Z,98738.16
2023-01-21T07:57:35.651Z,98743.06
2023-01-21T08:00:03.411Z,98753.72
2023-01-21T08:02:31.235Z,98748.88
2023-01-21T08:04:59.045Z,98756.28
2023-01-21T08:07:26.706Z,98739.25
2023-01-21T08:09:55.797Z,98750.56
2023-01-21T08:12:25.230Z,98739.84
2023-01-21T08:14:54.088Z,98750.47
2023-01-21T08:17:21.855Z,98740.44
2023-01-21T08:19:49.545Z,98743.16
2023-01-21T08:22:17.207Z,98738.81
2023-01-21T08:24:44.896Z,98750.41
2023-01-21T08:27:13.975Z,98750.16
2023-01-21T08:29:41.710Z,98755.03
2023-01-21T08:32:09.459Z,98748.66
2023-01-21T08:34:37.305Z,98750.84
2023-01-21T08:37:04.963Z,98759.38
2023-01-21T08:39:32.771Z,98762.88
2023-01-21T08:42:00.492Z,98769.56
2023-01-21T08:44:29.550Z,98768.84
2023-01-21T08:46:57.216Z,98770.97
2023-01-21T08:49:24.967Z,98772.38
2023-01-21T08:51:52.706Z,98775.53
2023-01-21T08:54:20.579Z,98770.47
2023-01-21T08:56:48.293Z,98777.19
2023-01-21T08:59:16.939Z,98786.38
2023-01-21T09:01:46.056Z,98783.16
2023-01-21T09:04:13.703Z,98785.91
2023-01-21T09:06:41.382Z,98783.44
2023-01-21T09:09:11.897Z,98788.09
2023-01-21T09:11:39.572Z,98800.97
2023-01-21T09:14:07.365Z,98793.00
2023-01-21T09:16:36.362Z,98804.56
2023-01-21T09:19:06.058Z,98801.09
2023-01-21T09:21:35.778Z,98804.88
2023-01-21T09:24:03.632Z,98811.38
2023-01-21T09:26:31.396Z,98808.19
2023-01-21T09:29:01.100Z,98814.13
2023-01-21T09:31:30.871Z,98813.59
2023-01-21T09:34:00.437Z,98813.59
2023-01-21T09:36:31.652Z,98824.63
2023-01-21T09:38:59.840Z,98820.28
2023-01-21T09:41:30.709Z,98826.44
2023-01-21T09:44:06.265Z,98812.50
2023-01-21T09:46:40.006Z,98828.66
2023-01-21T09:49:14.318Z,98834.03
2023-01-21T09:51:50.224Z,98818.97
2023-01-21T09:54:26.497Z,98825.38
2023-01-21T09:57:30.896Z,98827.59
2023-01-21T10:00:19.018Z,98837.53
2023-01-21T10:02:58.951Z,98833.53
2023-01-21T10:06:00.113Z,98824.41
2023-01-21T10:08:36.759Z,98834.53
2023-01-21T10:11:22.203Z,98833.78
2023-01-21T10:14:11.524Z,98828.72
2023-01-21T10:16:46.397Z,98830.28
2023-01-21T10:19:18.362Z,98827.00
2023-01-21T10:21:51.759Z,98831.84
2023-01-21T10:24:25.733Z,98833.47
2023-01-21T10:26:54.890Z,98836.09
2023-01-21T10:29:26.678Z,98840.72
2023-01-21T10:31:59.486Z,98831.22
2023-01-21T10:34:31.252Z,98833.91
2023-01-21T10:37:13.344Z,98831.09
2023-01-21T10:39:54.590Z,98832.41
2023-01-21T10:42:45.608Z,98828.72
2023-01-21T10:45:21.669Z,98835.47
2023-01-21T10:47:55.909Z,98838.66
2023-01-21T10:50:35.097Z,98841.59
2023-01-21T10:53:13.102Z,98836.41
2023-01-21T10:55:51.580Z,98836.91
2023-01-21T10:58:28.101Z,98835.56
2023-01-21T11:00:59.673Z,98837.69
2023-01-21T11:03:35.811Z,98831.53
2023-01-21T11:06:06.959Z,98834.25
2023-01-21T11:08:34.906Z,98827.47
2023-01-21T11:11:04.300Z,98841.94
2023-01-21T11:13:32.037Z,98830.69
2023-01-21T11:16:01.999Z,98840.06
2023-01-21T11:18:34.271Z,98824.75
2023-01-21T11:21:04.870Z,98826.13
2023-01-21T11:23:34.803Z,98829.09
2023-01-21T11:26:07.701Z,98827.00
2023-01-21T11:28:36.530Z,98825.56
2023-01-21T11:31:12.709Z,98824.72
2023-01-21T11:33:41.283Z,98815.91
2023-01-21T11:36:15.165Z,98817.00
2023-01-21T11:38:43.356Z,98810.34
2023-01-21T11:41:22.400Z,98811.38
2023-01-21T11:43:52.294Z,98816.69
2023-01-21T11:46:38.428Z,98810.84
2023-01-21T11:49:33.926Z,98808.47
2023-01-21T11:52:16.079Z,98806.59
2023-01-21T11:54:44.213Z,98806.63
2023-01-21T11:57:29.575Z,98805.56
2023-01-21T12:00:01.430Z,98798.56
2023-01-21T12:02:32.298Z,98798.06
2023-01-21T12:05:04.558Z,98783.56
2023-01-21T12:07:34.763Z,98794.81
2023-01-21T12:10:08.388Z,98797.53
2023-01-21T12:13:00.680Z,98789.75
2023-01-21T12:15:43.377Z,98792.44
2023-01-21T12:18:25.963Z,98777.63
2023-01-21T12:21:03.308Z,98791.63
2023-01-21T12:23:51.070Z,98779.28
2023-01-21T12:26:32.304Z,98782.19
2023-01-21T12:29:19.407Z,98774.94
2023-01-21T12:31:53.204Z,98772.25
2023-01-21T12:34:26.355Z,98760.94
2023-01-21T12:36:59.299Z,98767.09
2023-01-21T12:39:30.148Z,98769.28
2023-01-21T12:42:06.007Z,98762.59
2023-01-21T12:44:40.363Z,98771.69
2023-01-21T12:47:15.601Z,98771.66
2023-01-21T12:49:54.585Z,98775.22
2023-01-21T12:52:26.509Z,98782.47
2023-01-21T12:55:00.378Z,98787.03
2023-01-21T12:57:34.500Z,98790.25
2023-01-21T13:00:14.093Z,98788.88
2023-01-21T13:02:49.358Z,98793.72
2023-01-21T13:05:22.858Z,98798.00
2023-01-21T13:07:57.849Z,98798.50
2023-01-21T13:10:30.040Z,98801.19
2023-01-21T13:13:02.579Z,98795.28
2023-01-21T13:15:34.719Z,98795.25
2023-01-21T13:18:06.703Z,98797.41
2023-01-21T13:20:40.279Z,98789.34
2023-01-21T13:23:14.559Z,98794.16
2023-01-21T13:25:49.262Z,98789.91
2023-01-21T13:28:24.989Z,98797.44
2023-01-21T13:31:02.947Z,98796.84
2023-01-21T13:33:36.961Z,98797.41
2023-01-21T13:36:17.153Z,98802.25
2023-01-21T13:38:53.326Z,98795.25
2023-01-21T13:41:36.881Z,98801.13
2023-01-21T13:44:31.768Z,98801.72
2023-01-21T13:47:13.352Z,98796.88
2023-01-21T13:49:56.670Z,98793.03
2023-01-21T13:52:29.868Z,98802.97
2023-01-21T13:55:24.487Z,98793.59
2023-01-21T13:58:03.286Z,98790.41
2023-01-21T14:00:34.653Z,98794.16
2023-01-21T14:03:10.912Z,98800.84
2023-01-21T14:05:42.430Z,98789.28
2023-01-21T14:08:15.229Z,98799.50
2023-01-21T14:10:49.036Z,98796.84
2023-01-21T14:13:36.222Z,98795.22
2023-01-21T14:16:25.979Z,98794.13
2023-01-21T14:19:09.615Z,98793.66
2023-01-21T14:22:08.176Z,98793.56
2023-01-21T14:24:50.485Z,98794.38
2023-01-21T14:27:29.292Z,98795.47
2023-01-21T14:30:05.646Z,98787.69
2023-01-21T14:32:41.527Z,98790.88
2023-01-21T14:35:21.003Z,98798.94
2023-01-21T14:37:56.522Z,98787.44
2023-01-21T14:40:30.005Z,98787.38
2023-01-21T14:42:57.830Z,98785.44
2023-01-21T14:45:52.509Z,98790.81
2023-01-21T14:48:32.404Z,98783.88
2023-01-21T14:51:12.186Z,98797.22
2023-01-21T14:53:46.181Z,98795.09
2023-01-21T14:56:24.108Z,98799.94
2023-01-21T14:58:55.077Z,98796.50
2023-01-21T15:01:29.464Z,98803.78
2023-01-21T15:04:00.665Z,98796.25
2023-01-21T15:06:28.510Z,98785.97
2023-01-21T15:08:59.897Z,98800.47
2023-01-21T15:11:32.632Z,98800.47
2023-01-21T15:14:11.150Z,98798.88
2023-01-21T15:16:40.329Z,98801.06
2023-01-21T15:19:25.018Z,98789.78
2023-01-21T15:22:23.156Z,98801.03
2023-01-21T15:25:21.464Z,98806.91
2023-01-21T15:28:36.611Z,98796.97
2023-01-21T15:31:06.524Z,98814.47
2023-01-21T15:33:39.935Z,98802.13
2023-01-21T15:36:21.072Z,98812.81
2023-01-21T15:38:50.406Z,98809.59
2023-01-21T15:41:27.853Z,98816.56
2023-01-21T15:44:11.854Z,98817.94
2023-01-21T15:46:47.984Z,98817.63
2023-01-21T15:49:44.094Z,98820.09
2023-01-21T15:52:31.627Z,98816.09
2023-01-21T15:55:16.212Z,98815.56
2023-01-21T15:57:51.879Z,98815.53
2023-01-21T16:00:31.153Z,98816.03
2023-01-21T16:03:22.256Z,98816.03
2023-01-21T16:06:00.370Z,98812.78
2023-01-21T16:08:47.708Z,98821.94
2023-01-21T16:11:28.426Z,98829.44
2023-01-21T16:14:04.393Z,98828.31
2023-01-21T16:16:48.090Z,98831.44
2023-01-21T16:19:18.121Z,98827.16
2023-01-21T16:21:50.158Z,98830.91
2023-01-21T16:24:24.690Z,98834.69
2023-01-21T16:26:52.399Z,98830.97
2023-01-21T16:29:20.061Z,98831.47
2023-01-21T16:31:52.652Z,98830.97
2023-01-21T16:34:40.084Z,98832.03
2023-01-21T16:37:08.044Z,98833.34
2023-01-21T16:39:37.288Z,98835.78
2023-01-21T16:42:07.605Z,98833.59
2023-01-21T16:44:36.618Z,98840.59
2023-01-21T16:47:04.765Z,98834.41
2023-01-21T16:49:34.484Z,98830.41
2023-01-21T16:52:04.114Z,98830.16
2023-01-21T16:54:33.615Z,98839.56
2023-01-21T16:57:04.034Z,98836.34
2023-01-21T16:59:39.346Z,98833.69
2023-01-21T17:02:18.505Z,98840.69
2023-01-21T17:04:46.409Z,98837.72
2023-01-21T17:07:17.364Z,98843.41
2023-01-21T17:09:45.200Z,98841.22
2023-01-21T17:12:23.400Z,98840.16
2023-01-21T17:14:57.149Z,98839.59
2023-01-21T17:17:26.348Z,98831.56
2023-01-21T17:19:55.552Z,98847.06
2023-01-21T17:22:24.619Z,98844.41
2023-01-21T17:25:03.481Z,98840.06
2023-01-21T17:27:33.350Z,98841.78
2023-01-21T17:30:34.913Z,98846.03
2023-01-21T17:33:03.589Z,98840.94
2023-01-21T17:35:33.441Z,98849.28
2023-01-21T17:38:02.614Z,98845.53
2023-01-21T17:40:33.604Z,98846.59
2023-01-21T17:43:16.428Z,98843.63
2023-01-21T17:45:46.810Z,98832.59
2023-01-21T17:48:24.916Z,98837.44
2023-01-21T17:50:53.309Z,98838.25
2023-01-21T17:53:26.050Z,98842.84
2023-01-21T17:55:59.955Z,98847.63
2023-01-21T17:58:53.625Z,98839.56
2023-01-21T18:01:22.187Z,98850.59
2023-01-21T18:03:50.275Z,98847.06
2023-01-21T18:06:22.821Z,98838.47
2023-01-21T18:08:53.084Z,98842.75
2023-01-21T18:11:22.632Z,98840.59
2023-01-21T18:13:52.841Z,98850.28
2023-01-21T18:16:22.280Z,98842.16
2023-01-21T18:18:50.510Z,98836.78
2023-01-21T18:21:20.496Z,98838.97
2023-01-21T18:23:48.954Z,98837.91
2023-01-21T18:26:23.598Z,98831.53
2023-01-21T18:28:51.348Z,98834.41
2023-01-21T18:31:19.174Z,98835.22
2023-01-21T18:33:48.280Z,98837.38
2023-01-21T18:36:16.019Z,98839.56
2023-01-21T18:38:43.732Z,98833.66
2023-01-21T18:41:13.412Z,98833.03
2023-01-21T18:43:42.168Z,98833.56
2023-01-21T18:46:13.215Z,98833.03
2023-01-21T18:48:42.752Z,98827.16
2023-01-21T18:51:13.742Z,98832.78
2023-01-21T18:53:41.423Z,98836.78
2023-01-21T18:56:13.594Z,98827.69
2023-01-21T18:58:41.390Z,98826.66
2023-01-21T19:01:22.128Z,98833.03
2023-01-21T19:03:53.470Z,98830.31
2023-01-21T19:06:24.646Z,98823.63
2023-01-21T19:08:52.461Z,98823.94
2023-01-21T19:11:20.436Z,98818.28
2023-01-21T19:13:48.104Z,98823.88
2023-01-21T19:16:18.386Z,98819.84
2023-01-21T19:18:46.507Z,98813.16
2023-01-21T19:21:14.260Z,98812.91
2023-01-21T19:23:43.464Z,98803.50
2023-01-21T19:26:14.674Z,98801.88
2023-01-21T19:28:42.670Z,98794.91
2023-01-21T19:31:10.595Z,98789.31
2023-01-21T19:33:39.812Z,98803.00
2023-01-21T19:36:15.876Z,98784.25
2023-01-21T19:38:49.622Z,98788.81
2023-01-21T19:41:17.385Z,98785.88
2023-01-21T19:43:46.121Z,98790.97
2023-01-21T19:46:14.158Z,98784.25
2023-01-21T19:48:41.975Z,98790.13
2023-01-21T19:51:10.291Z,98782.63
2023-01-21T19:53:38.079Z,98785.34
2023-01-21T19:56:08.126Z,98787.75
2023-01-21T19:58:36.032Z,98789.63
2023-01-21T20:01:03.831Z,98786.94
2023-01-21T20:03:31.551Z,98788.00
2023-01-21T20:06:03.115Z,98787.19
2023-01-21T20:08:32.825Z,98788.00
2023-01-21T20:11:00.652Z,98781.53
2023-01-21T20:13:32.168Z,98792.84
2023-01-21T20:16:03.779Z,98797.13
2023-01-21T20:18:33.395Z,98793.38
2023-01-21T20:21:01.183Z,98799.25
2023-01-21T20:23:31.074Z,98790.69
2023-01-21T20:26:00.884Z,98794.47
2023-01-21T20:28:38.548Z,98790.69
2023-01-21T20:31:08.005Z,98788.84
2023-01-21T20:33:36.757Z,98799.56
2023-01-21T20:36:06.976Z,98798.25
2023-01-21T20:38:36.754Z,98795.03
2023-01-21T20:41:06.182Z,98791.00
2023-01-21T20:43:35.317Z,98797.16
2023-01-21T20:46:05.783Z,98796.88
2023-01-21T20:48:37.010Z,98797.69
2023-01-21T20:51:05.416Z,98800.91
2023-01-21T20:53:33.165Z,98803.03
2023-01-21T20:56:03.448Z,98796.34
2023-01-21T20:58:33.047Z,98803.59
2023-01-21T21:01:02.121Z,98798.25
2023-01-21T21:03:29.829Z,98798.84
2023-01-21T21:05:57.514Z,98801.50
2023-01-21T21:08:25.224Z,98801.50
2023-01-21T21:10:52.978Z,98803.63
2023-01-21T21:13:20.638Z,98803.63
2023-01-21T21:15:50.584Z,98798.25
2023-01-21T21:18:19.627Z,98800.97
2023-01-21T21:20:47.306Z,98798.84
2023-01-21T21:23:15.702Z,98799.91
2023-01-21T21:25:45.611Z,98797.22
2023-01-21T21:28:15.482Z,98806.63
2023-01-21T21:30:44.290Z,98798.25
2023-01-21T21:33:17.974Z,98809.03
2023-01-21T21:35:47.394Z,98806.38
2023-01-21T21:38:17.534Z,98804.50
2023-01-21T21:40:47.556Z,98806.09
2023-01-21T21:43:32.355Z,98805.28
2023-01-21T21:46:22.291Z,98789.19
2023-01-21T21:48:51.456Z,98799.66
2023-01-21T21:51:22.165Z,98794.03
2023-01-21T21:53:50.252Z,98800.47
2023-01-21T21:56:19.860Z,98797.78
2023-01-21T21:58:48.300Z,98797.78
2023-01-21T22:01:18.687Z,98805.84
2023-01-21T22:03:47.167Z,98802.59
2023-01-21T22:06:15.750Z,98804.72
2023-01-21T22:08:45.672Z,98800.97
2023-01-21T22:11:16.309Z,98802.88
2023-01-21T22:13:45.133Z,98800.97
2023-01-21T22:16:15.509Z,98800.47
2023-01-21T22:18:43.654Z,98796.69
2023-01-21T22:21:15.096Z,98793.28
2023-01-21T22:23:44.492Z,98802.63
2023-01-21T22:26:14.455Z,98793.53
2023-01-21T22:28:43.908Z,98794.56
2023-01-21T22:31:17.526Z,98798.88
2023-01-21T22:33:45.659Z,98795.72
2023-01-21T22:36:15.954Z,98798.38
2023-01-21T22:38:46.093Z,98794.63
2023-01-21T22:41:17.076Z,98797.78
2023-01-21T22:43:48.075Z,98798.31
2023-01-21T22:46:18.733Z,98795.66
2023-01-21T22:48:46.750Z,98786.53
2023-01-21T22:51:16.445Z,98784.16
2023-01-21T22:53:45.623Z,98778.50
2023-01-21T22:56:15.193Z,98786.00
2023-01-21T22:58:43.358Z,98787.66
2023-01-21T23:01:21.722Z,98787.13
2023-01-21T23:03:49.492Z,98788.75
2023-01-21T23:06:17.195Z,98786.06
2023-01-21T23:08:46.517Z,98783.38
2023-01-21T23:11:16.160Z,98785.50
2023-01-21T23:13:44.543Z,98785.50
2023-01-21T23:16:15.952Z,98787.13
2023-01-21T23:18:43.696Z,98776.91
2023-01-21T23:21:15.359Z,98778.25
2023-01-21T23:23:43.059Z,98778.00
2023-01-21T23:26:12.495Z,98778.53
2023-01-21T23:28:40.530Z,98777.94
2023-01-21T23:31:10.563Z,98778.22
2023-01-21T23:33:39.958Z,98779.03
2023-01-21T23:36:09.452Z,98772.59
2023-01-21T23:38:37.174Z,98779.84
2023-01-21T23:41:07.067Z,98773.69
2023-01-21T23:43:37.028Z,98774.22
2023-01-21T23:46:06.506Z,98776.41
2023-01-21T23:48:34.310Z,98772.59
2023-01-21T23:51:05.683Z,98775.28
2023-01-21T23:53:34.935Z,98765.66
2023-01-21T23:56:07.238Z,98762.97
2023-01-21T23:58:36.735Z,98759.75
